Agana, Guam
Current Conditions -  °F | °C
As of 10:54 AM on Tuesday 25 Nov 2014 (Local Time) from PGUM Reporting Station
Few Clouds Few Clouds  
Wind Chill: 87°   Ceiling: Unl
Heat Index: 96°   Visibility: 10mi
Dew Point: 75°   Wind: 17mph
Humidity: 67%   Direction: 70°ENE
Pressure: 29.86"   Gusts: 29mph
Location:  13.4751°N, 144.7484°E
Report Text: PGUM 250054Z 07015G25KT 10SM FEW023 31/24 A2986 RMK AO2 SLP104 P0001 T03060239
Loading
Personal Weather Stations






























Interactive Weather Map New forecast layout! Learn more

10-Day Weather Forecast

Advertisements
Track Severe Weather on mobile